Time;durP1;ratioP1;P1;durP2;ratioP2;P2;SDS_P1;SDS_P2;PMS_P1;PMS_P2;Temp;Humidity;BMP_temperature;BMP_pressure;BME280_temperature;BME280_humidity;BME280_pressure;Samples;Min_cycle;Max_cycle;Signal;HPM_P1;HPM_P2
2021/06/10 00:02:38;;;;;;;15.73;10.20;;;;;;;;;;5033011;28;20056;-71
2021/06/10 00:05:42;;;;;;;18.77;10.88;;;;;;;;;;5032021;28;20044;-72
2021/06/10 00:08:46;;;;;;;18.55;10.27;;;;;;;;;;5033099;28;20048;-72
2021/06/10 00:11:51;;;;;;;16.35;10.75;;;;;;;;;;5032869;28;20354;-72
2021/06/10 00:14:55;;;;;;;15.73;10.63;;;;;;;;;;5032805;28;20048;-72
2021/06/10 00:18:00;;;;;;;13.68;10.40;;;;;;;;;;5032823;28;20087;-73
2021/06/10 00:21:06;;;;;;;14.80;11.00;;;;;;;;;;5032822;28;20061;-72
2021/06/10 00:24:12;;;;;;;16.98;11.32;;;;;;;;;;5032858;28;20048;-71
2021/06/10 00:27:20;;;;;;;15.75;10.63;;;;;;;;;;5032538;28;20049;-71
2021/06/10 00:30:25;;;;;;;12.38;10.65;;;;;;;;;;5032912;28;20049;-72
2021/06/10 00:33:29;;;;;;;19.85;11.13;;;;;;;;;;5032403;28;20060;-71
2021/06/10 00:36:33;;;;;;;12.93;10.90;;;;;;;;;;5031430;28;20117;-72
2021/06/10 00:39:38;;;;;;;17.23;11.35;;;;;;;;;;5032273;28;20064;-72
2021/06/10 00:42:43;;;;;;;13.80;10.82;;;;;;;;;;5032111;28;20507;-72
2021/06/10 00:45:47;;;;;;;17.90;11.65;;;;;;;;;;5032498;28;20048;-71
2021/06/10 00:48:51;;;;;;;21.17;12.02;;;;;;;;;;5032110;28;20044;-71
2021/06/10 00:51:55;;;;;;;13.88;10.50;;;;;;;;;;5032227;28;20049;-72
2021/06/10 00:55:00;;;;;;;20.63;12.18;;;;;;;;;;5031656;28;20068;-71
2021/06/10 00:58:04;;;;;;;13.02;11.45;;;;;;;;;;5032217;28;20045;-71
2021/06/10 01:01:09;;;;;;;19.00;12.52;;;;;;;;;;5032504;28;20044;-71
2021/06/10 01:04:13;;;;;;;16.15;12.18;;;;;;;;;;5032690;28;20048;-72
2021/06/10 01:07:30;;;;;;;15.95;12.13;;;;;;;;;;5032472;28;20044;-71
2021/06/10 01:10:41;;;;;;;16.48;11.98;;;;;;;;;;5032475;28;20068;-72
2021/06/10 01:13:52;;;;;;;19.80;12.27;;;;;;;;;;5032353;28;20052;-71
2021/06/10 01:16:59;;;;;;;15.52;12.23;;;;;;;;;;5031932;28;20040;-71
2021/06/10 01:20:06;;;;;;;19.25;13.15;;;;;;;;;;5031840;28;20052;-71
2021/06/10 01:23:37;;;;;;;22.05;13.50;;;;;;;;;;5031794;28;20052;-71
2021/06/10 01:26:55;;;;;;;16.55;12.60;;;;;;;;;;5032445;28;20045;-72
2021/06/10 01:30:04;;;;;;;16.58;12.40;;;;;;;;;;5031528;28;20393;-72
2021/06/10 01:33:10;;;;;;;18.98;12.63;;;;;;;;;;5030888;28;20065;-72
2021/06/10 01:36:35;;;;;;;15.77;12.18;;;;;;;;;;5035524;28;20048;-71
2021/06/10 01:39:39;;;;;;;18.20;13.55;;;;;;;;;;5035472;28;20052;-72
2021/06/10 01:42:44;;;;;;;15.70;12.43;;;;;;;;;;5034541;28;20068;-71
2021/06/10 01:45:49;;;;;;;20.98;13.15;;;;;;;;;;5035714;28;20041;-71
2021/06/10 01:48:54;;;;;;;15.55;13.88;;;;;;;;;;5035518;28;20048;-72
2021/06/10 01:51:59;;;;;;;20.88;14.63;;;;;;;;;;5035180;28;20076;-71
2021/06/10 01:55:05;;;;;;;27.13;16.40;;;;;;;;;;5034354;28;20508;-71
2021/06/10 01:58:10;;;;;;;22.30;17.45;;;;;;;;;;5035043;28;20045;-70
2021/06/10 02:01:15;;;;;;;21.73;13.52;;;;;;;;;;5035133;28;20052;-71
2021/06/10 02:04:20;;;;;;;21.77;13.70;;;;;;;;;;5035254;28;20052;-71
2021/06/10 02:07:24;;;;;;;18.15;14.68;;;;;;;;;;5035572;28;20063;-71
2021/06/10 02:10:29;;;;;;;20.15;14.90;;;;;;;;;;5035059;28;20113;-71
2021/06/10 02:13:34;;;;;;;21.23;15.02;;;;;;;;;;5035320;28;20052;-72
2021/06/10 02:16:42;;;;;;;21.08;14.48;;;;;;;;;;5034896;28;20044;-70
2021/06/10 02:19:46;;;;;;;20.63;14.75;;;;;;;;;;5034701;28;20056;-70
2021/06/10 02:22:51;;;;;;;25.85;15.57;;;;;;;;;;5034675;28;20064;-71
2021/06/10 02:25:56;;;;;;;23.38;16.58;;;;;;;;;;5034988;28;20056;-72
2021/06/10 02:29:01;;;;;;;18.75;15.55;;;;;;;;;;5034612;28;20052;-72
2021/06/10 02:32:06;;;;;;;25.25;16.50;;;;;;;;;;5035085;28;20048;-73
2021/06/10 02:35:11;;;;;;;22.08;16.30;;;;;;;;;;5034316;28;20061;-71
2021/06/10 02:38:18;;;;;;;22.83;15.02;;;;;;;;;;5035095;28;20048;-71
2021/06/10 02:41:25;;;;;;;19.90;15.85;;;;;;;;;;5034639;28;20056;-71
2021/06/10 02:44:30;;;;;;;26.70;15.88;;;;;;;;;;5034154;28;20060;-71
2021/06/10 02:47:35;;;;;;;24.40;15.38;;;;;;;;;;5034555;28;20049;-70
2021/06/10 02:50:41;;;;;;;29.17;16.90;;;;;;;;;;5034216;28;20500;-72
2021/06/10 02:53:46;;;;;;;25.92;16.10;;;;;;;;;;5034538;28;20052;-72
2021/06/10 02:56:51;;;;;;;24.45;16.65;;;;;;;;;;5034147;28;20056;-71
2021/06/10 02:59:55;;;;;;;21.35;16.48;;;;;;;;;;5034617;28;20049;-71
2021/06/10 03:03:03;;;;;;;21.20;15.88;;;;;;;;;;5033949;28;20535;-72
2021/06/10 03:06:08;;;;;;;19.00;15.50;;;;;;;;;;5033854;28;20048;-71
2021/06/10 03:09:14;;;;;;;22.52;16.92;;;;;;;;;;5033716;28;20041;-71
2021/06/10 03:12:19;;;;;;;21.02;16.33;;;;;;;;;;5033881;28;20036;-71
2021/06/10 03:15:23;;;;;;;23.25;16.23;;;;;;;;;;5034430;28;20048;-70
2021/06/10 03:18:27;;;;;;;27.77;16.50;;;;;;;;;;5034263;28;20052;-72
2021/06/10 03:21:33;;;;;;;23.15;15.95;;;;;;;;;;5033964;28;20071;-72
2021/06/10 03:24:38;;;;;;;21.85;15.80;;;;;;;;;;5034230;28;20041;-72
2021/06/10 03:27:43;;;;;;;23.85;15.93;;;;;;;;;;5032884;28;20516;-71
2021/06/10 03:30:47;;;;;;;27.27;16.58;;;;;;;;;;5033665;28;20044;-72
2021/06/10 03:33:53;;;;;;;23.27;17.50;;;;;;;;;;5033822;28;20056;-71
2021/06/10 03:36:58;;;;;;;25.42;17.80;;;;;;;;;;5034236;28;20508;-72
2021/06/10 03:40:04;;;;;;;26.23;18.20;;;;;;;;;;5033165;28;20128;-71
2021/06/10 03:43:10;;;;;;;24.67;17.65;;;;;;;;;;5033697;28;20056;-71
2021/06/10 03:46:14;;;;;;;30.92;18.92;;;;;;;;;;5034264;28;20036;-72
2021/06/10 03:49:22;;;;;;;26.77;18.27;;;;;;;;;;5034354;28;20072;-70
2021/06/10 03:52:27;;;;;;;25.00;17.52;;;;;;;;;;5033410;28;20056;-72
2021/06/10 03:55:31;;;;;;;29.55;17.95;;;;;;;;;;5033797;28;20048;-70
2021/06/10 03:58:35;;;;;;;29.17;18.67;;;;;;;;;;5033817;28;20040;-72
2021/06/10 04:01:40;;;;;;;24.80;18.45;;;;;;;;;;5033872;28;20056;-71
2021/06/10 04:04:45;;;;;;;29.13;17.85;;;;;;;;;;5033905;28;20048;-70
2021/06/10 04:07:49;;;;;;;30.85;18.55;;;;;;;;;;5034381;28;20048;-71
2021/06/10 04:10:53;;;;;;;32.28;18.42;;;;;;;;;;5033553;28;20052;-71
2021/06/10 04:13:58;;;;;;;25.30;17.63;;;;;;;;;;5034224;28;20056;-70
2021/06/10 04:17:02;;;;;;;28.58;18.15;;;;;;;;;;5033110;28;20037;-72
2021/06/10 04:20:07;;;;;;;24.60;16.83;;;;;;;;;;5033541;28;20040;-70
2021/06/10 04:23:12;;;;;;;22.05;17.65;;;;;;;;;;5033160;28;20056;-71
2021/06/10 04:26:17;;;;;;;21.13;17.00;;;;;;;;;;5021964;28;20028;-72
2021/06/10 04:29:21;;;;;;;21.08;16.70;;;;;;;;;;5033284;28;20048;-71
2021/06/10 04:32:26;;;;;;;22.02;16.83;;;;;;;;;;5033262;28;20060;-72
2021/06/10 04:35:31;;;;;;;23.90;16.13;;;;;;;;;;5033917;28;20659;-71
2021/06/10 04:38:35;;;;;;;23.27;15.55;;;;;;;;;;5033065;28;20417;-70
2021/06/10 04:41:42;;;;;;;23.92;15.35;;;;;;;;;;5032432;28;20434;-72
2021/06/10 04:44:45;;;;;;;24.77;14.32;;;;;;;;;;5032728;28;20040;-71
2021/06/10 04:47:50;;;;;;;22.52;14.70;;;;;;;;;;5032658;28;20040;-72
2021/06/10 04:50:55;;;;;;;26.33;15.90;;;;;;;;;;5032338;28;20052;-71
2021/06/10 04:53:59;;;;;;;19.85;15.10;;;;;;;;;;5033412;28;20044;-71
2021/06/10 04:57:06;;;;;;;21.48;13.98;;;;;;;;;;5032158;28;20049;-71
2021/06/10 05:00:10;;;;;;;16.50;14.07;;;;;;;;;;5032432;28;20053;-71
2021/06/10 05:03:20;;;;;;;21.38;13.88;;;;;;;;;;5032601;28;20065;-73
2021/06/10 05:06:25;;;;;;;27.67;14.73;;;;;;;;;;5032902;28;20393;-71
2021/06/10 05:09:29;;;;;;;20.77;13.15;;;;;;;;;;5031411;28;20048;-71
2021/06/10 05:12:33;;;;;;;22.42;14.32;;;;;;;;;;5032900;28;20037;-69
2021/06/10 05:15:38;;;;;;;18.77;13.45;;;;;;;;;;5032051;28;20052;-70
2021/06/10 05:18:43;;;;;;;21.05;15.55;;;;;;;;;;5021311;28;20124;-70
2021/06/10 05:21:47;;;;;;;21.98;13.50;;;;;;;;;;5033516;28;20057;-70
2021/06/10 05:24:51;;;;;;;22.00;14.98;;;;;;;;;;5032430;28;20048;-70
2021/06/10 05:27:56;;;;;;;29.13;16.17;;;;;;;;;;5031982;28;20048;-70
2021/06/10 05:31:01;;;;;;;24.42;17.23;;;;;;;;;;5032130;28;20048;-68
2021/06/10 05:34:05;;;;;;;22.27;17.50;;;;;;;;;;5033065;28;20076;-69
2021/06/10 05:37:09;;;;;;;30.67;20.30;;;;;;;;;;5030891;28;20048;-69
2021/06/10 05:40:17;;;;;;;26.27;17.88;;;;;;;;;;5031188;28;20049;-69
2021/06/10 05:43:24;;;;;;;31.55;22.90;;;;;;;;;;5030554;28;20049;-69
2021/06/10 05:46:28;;;;;;;27.50;21.42;;;;;;;;;;5032127;28;20041;-69
2021/06/10 05:49:33;;;;;;;24.83;19.17;;;;;;;;;;5032586;28;20052;-69
2021/06/10 05:52:42;;;;;;;31.48;19.55;;;;;;;;;;5032269;28;20040;-68
2021/06/10 05:55:47;;;;;;;32.80;19.80;;;;;;;;;;5031526;28;20053;-69
2021/06/10 05:58:51;;;;;;;31.02;19.52;;;;;;;;;;5031743;28;20044;-68
2021/06/10 06:01:56;;;;;;;27.83;20.05;;;;;;;;;;5030220;28;20079;-68
2021/06/10 06:05:00;;;;;;;25.58;19.60;;;;;;;;;;5030143;28;20040;-69
2021/06/10 06:08:05;;;;;;;29.17;19.38;;;;;;;;;;5030419;28;20053;-69
2021/06/10 06:11:09;;;;;;;23.25;18.35;;;;;;;;;;5030778;28;20056;-70
2021/06/10 06:14:16;;;;;;;25.35;17.40;;;;;;;;;;5030486;28;20052;-69
2021/06/10 06:17:20;;;;;;;25.25;17.17;;;;;;;;;;5030291;28;20037;-69
2021/06/10 06:20:25;;;;;;;31.85;17.73;;;;;;;;;;5031286;28;20052;-67
2021/06/10 06:23:31;;;;;;;22.42;16.23;;;;;;;;;;5033826;28;20064;-67
2021/06/10 06:26:35;;;;;;;21.02;15.55;;;;;;;;;;5033677;28;20509;-68
2021/06/10 06:29:40;;;;;;;22.90;14.98;;;;;;;;;;5033197;28;20044;-67
2021/06/10 06:32:44;;;;;;;22.25;14.55;;;;;;;;;;5033828;28;20389;-68
2021/06/10 06:35:48;;;;;;;24.52;15.20;;;;;;;;;;5033606;28;20120;-67
2021/06/10 06:38:53;;;;;;;23.73;15.05;;;;;;;;;;5033880;28;20049;-69
2021/06/10 06:41:58;;;;;;;23.23;16.05;;;;;;;;;;5033475;28;20056;-67
2021/06/10 06:45:02;;;;;;;24.88;16.38;;;;;;;;;;5033362;28;20056;-67
2021/06/10 06:48:07;;;;;;;20.13;13.32;;;;;;;;;;5033602;28;20048;-67
2021/06/10 06:51:11;;;;;;;21.08;14.18;;;;;;;;;;5033101;28;20525;-68
2021/06/10 06:54:15;;;;;;;25.17;15.63;;;;;;;;;;5033233;28;20052;-69
2021/06/10 06:57:20;;;;;;;23.23;15.63;;;;;;;;;;5033406;28;20095;-67
2021/06/10 07:00:25;;;;;;;18.48;15.27;;;;;;;;;;5032510;28;20053;-68
2021/06/10 07:03:29;;;;;;;20.75;16.13;;;;;;;;;;5033020;28;20060;-68
2021/06/10 07:06:34;;;;;;;24.33;17.73;;;;;;;;;;5033235;28;20040;-68
2021/06/10 07:09:39;;;;;;;31.63;19.05;;;;;;;;;;5033087;28;20048;-67
2021/06/10 07:12:44;;;;;;;29.85;21.52;;;;;;;;;;5033059;28;20099;-66
2021/06/10 07:15:48;;;;;;;26.65;19.55;;;;;;;;;;5032162;28;20045;-68
2021/06/10 07:18:53;;;;;;;28.08;15.73;;;;;;;;;;5031987;28;20052;-69
2021/06/10 07:21:57;;;;;;;18.55;13.98;;;;;;;;;;5032232;28;20056;-67
2021/06/10 07:25:02;;;;;;;24.70;13.82;;;;;;;;;;5032534;28;20048;-67
2021/06/10 07:28:06;;;;;;;21.98;12.52;;;;;;;;;;5032294;28;20040;-67
2021/06/10 07:31:10;;;;;;;19.35;10.98;;;;;;;;;;5031628;28;20070;-67
2021/06/10 07:34:15;;;;;;;17.35;9.75;;;;;;;;;;5032334;28;20057;-66
2021/06/10 07:37:19;;;;;;;14.70;10.68;;;;;;;;;;5032312;28;20030;-70
2021/06/10 07:40:24;;;;;;;14.98;9.65;;;;;;;;;;5032551;28;20049;-67
2021/06/10 07:43:28;;;;;;;22.15;9.23;;;;;;;;;;5032610;28;20052;-67
2021/06/10 07:46:33;;;;;;;18.27;10.77;;;;;;;;;;5031431;28;20040;-67
2021/06/10 07:49:39;;;;;;;12.65;8.80;;;;;;;;;;5032096;28;20040;-65
2021/06/10 07:52:43;;;;;;;17.67;9.40;;;;;;;;;;5032302;28;20038;-69
2021/06/10 07:55:54;;;;;;;16.77;8.70;;;;;;;;;;5031401;28;20033;-68
2021/06/10 07:58:58;;;;;;;12.70;7.95;;;;;;;;;;5032497;28;20045;-68
2021/06/10 08:02:03;;;;;;;12.75;7.65;;;;;;;;;;5032094;28;20041;-65
2021/06/10 08:05:08;;;;;;;13.73;8.90;;;;;;;;;;5032104;28;20045;-67
2021/06/10 08:08:13;;;;;;;10.35;7.80;;;;;;;;;;5031870;28;20037;-67
2021/06/10 08:11:20;;;;;;;9.55;7.40;;;;;;;;;;5031993;28;20057;-68
2021/06/10 08:14:25;;;;;;;11.45;7.60;;;;;;;;;;5031523;28;20041;-67
2021/06/10 08:17:30;;;;;;;14.30;7.90;;;;;;;;;;5031454;28;20052;-66
2021/06/10 08:20:35;;;;;;;17.92;7.50;;;;;;;;;;5031952;28;20053;-65
2021/06/10 08:23:39;;;;;;;10.18;6.93;;;;;;;;;;5031538;28;20049;-68
2021/06/10 08:26:44;;;;;;;12.23;7.03;;;;;;;;;;5031617;28;20045;-68
2021/06/10 08:29:48;;;;;;;14.23;6.82;;;;;;;;;;5019827;28;20052;-66
2021/06/10 08:32:53;;;;;;;12.48;7.28;;;;;;;;;;5030458;28;20044;-66
2021/06/10 08:35:58;;;;;;;14.00;7.30;;;;;;;;;;5031471;28;20405;-67
2021/06/10 08:39:02;;;;;;;14.38;6.97;;;;;;;;;;5031246;28;20033;-65
2021/06/10 08:42:07;;;;;;;19.40;7.97;;;;;;;;;;5031039;28;20064;-66
2021/06/10 08:45:13;;;;;;;10.13;6.28;;;;;;;;;;5031477;28;20048;-67
2021/06/10 08:48:17;;;;;;;11.63;6.85;;;;;;;;;;5031418;28;20033;-66
2021/06/10 08:51:22;;;;;;;7.68;6.05;;;;;;;;;;5031391;28;20048;-68
2021/06/10 08:54:26;;;;;;;9.10;6.63;;;;;;;;;;5030714;28;20037;-68
2021/06/10 08:57:31;;;;;;;12.52;7.10;;;;;;;;;;5030122;28;20033;-68
2021/06/10 09:00:36;;;;;;;9.48;6.90;;;;;;;;;;5031152;28;20536;-67
2021/06/10 09:03:40;;;;;;;17.75;6.63;;;;;;;;;;5031011;28;20054;-68
2021/06/10 09:06:49;;;;;;;11.48;6.18;;;;;;;;;;5031041;28;20033;-66
2021/06/10 09:09:53;;;;;;;11.18;6.38;;;;;;;;;;5031098;28;20048;-66
2021/06/10 09:12:59;;;;;;;14.18;7.03;;;;;;;;;;5031227;28;20045;-68
2021/06/10 09:16:16;;;;;;;11.52;6.38;;;;;;;;;;5031179;28;20046;-68
2021/06/10 09:19:20;;;;;;;14.57;6.78;;;;;;;;;;5030906;28;20034;-67
2021/06/10 09:22:26;;;;;;;15.27;5.85;;;;;;;;;;5031079;28;20054;-70
2021/06/10 09:25:31;;;;;;;15.80;6.10;;;;;;;;;;5030750;28;20531;-68
2021/06/10 09:28:38;;;;;;;8.63;5.78;;;;;;;;;;5030160;28;20044;-69
2021/06/10 09:31:44;;;;;;;9.57;5.78;;;;;;;;;;5030902;28;20057;-67
2021/06/10 09:34:53;;;;;;;6.53;5.20;;;;;;;;;;5030675;28;20049;-67
2021/06/10 09:37:59;;;;;;;10.98;5.85;;;;;;;;;;5030696;28;20050;-68
2021/06/10 09:41:12;;;;;;;7.95;5.20;;;;;;;;;;5030436;28;20501;-66
2021/06/10 09:44:36;;;;;;;6.13;5.43;;;;;;;;;;5029377;28;20046;-69
2021/06/10 09:47:49;;;;;;;11.98;5.40;;;;;;;;;;5030356;28;20037;-65
2021/06/10 09:50:56;;;;;;;6.00;5.40;;;;;;;;;;5030660;28;20046;-65
2021/06/10 09:54:00;;;;;;;6.55;5.38;;;;;;;;;;5030492;28;20450;-66
2021/06/10 09:57:05;;;;;;;7.20;5.40;;;;;;;;;;5034526;28;20038;-66
2021/06/10 10:00:10;;;;;;;10.65;5.82;;;;;;;;;;5034250;28;20038;-66
2021/06/10 10:03:28;;;;;;;8.95;5.90;;;;;;;;;;5034301;28;20108;-65
2021/06/10 10:06:35;;;;;;;7.38;5.70;;;;;;;;;;5034247;28;20041;-66
2021/06/10 10:09:39;;;;;;;9.55;5.88;;;;;;;;;;5033159;28;20037;-67
2021/06/10 10:12:45;;;;;;;12.38;6.30;;;;;;;;;;5033429;28;20037;-66
2021/06/10 10:15:50;;;;;;;7.88;6.18;;;;;;;;;;5033074;28;20042;-66
2021/06/10 10:18:55;;;;;;;7.80;6.55;;;;;;;;;;5034329;28;20066;-67
2021/06/10 10:22:00;;;;;;;12.57;6.07;;;;;;;;;;5034030;28;20045;-66
2021/06/10 10:25:04;;;;;;;10.13;6.70;;;;;;;;;;5034113;28;20074;-66
2021/06/10 10:28:10;;;;;;;7.82;6.22;;;;;;;;;;5032913;28;20034;-65
2021/06/10 10:31:15;;;;;;;12.45;6.28;;;;;;;;;;5034016;28;20041;-65
2021/06/10 10:34:24;;;;;;;10.95;6.60;;;;;;;;;;5033242;28;20042;-65
2021/06/10 10:37:28;;;;;;;10.90;6.65;;;;;;;;;;5033760;28;20045;-70
2021/06/10 10:40:40;;;;;;;9.70;6.20;;;;;;;;;;5033866;28;20469;-66
2021/06/10 10:43:44;;;;;;;8.35;6.18;;;;;;;;;;5033078;28;20041;-68
2021/06/10 10:47:01;;;;;;;9.65;6.78;;;;;;;;;;5032654;28;20053;-68
2021/06/10 10:50:06;;;;;;;10.25;6.25;;;;;;;;;;5033292;28;20037;-68
2021/06/10 10:53:15;;;;;;;8.18;7.18;;;;;;;;;;5033416;28;20038;-67
2021/06/10 10:56:19;;;;;;;8.43;5.90;;;;;;;;;;5033437;28;20045;-68
2021/06/10 10:59:23;;;;;;;17.73;7.28;;;;;;;;;;5032715;28;20037;-68
2021/06/10 11:02:28;;;;;;;13.07;6.95;;;;;;;;;;5032878;28;20653;-68
2021/06/10 11:05:33;;;;;;;8.07;6.43;;;;;;;;;;5032642;28;20041;-68
2021/06/10 11:08:56;;;;;;;7.35;6.22;;;;;;;;;;5032934;28;20049;-68
2021/06/10 11:12:04;;;;;;;7.45;6.65;;;;;;;;;;5033171;28;20049;-68
2021/06/10 11:15:27;;;;;;;13.20;6.75;;;;;;;;;;5033094;28;20037;-67
2021/06/10 11:18:41;;;;;;;13.82;7.35;;;;;;;;;;5032637;28;20112;-68
2021/06/10 11:21:48;;;;;;;9.48;6.95;;;;;;;;;;5032951;28;20034;-68
2021/06/10 11:24:52;;;;;;;7.57;6.15;;;;;;;;;;5033130;28;20364;-68
2021/06/10 11:28:16;;;;;;;10.35;6.78;;;;;;;;;;5032842;28;20041;-68
2021/06/10 11:31:22;;;;;;;7.97;6.70;;;;;;;;;;5032795;28;20134;-68
2021/06/10 11:34:34;;;;;;;9.70;6.57;;;;;;;;;;5032497;28;20399;-68
2021/06/10 11:37:39;;;;;;;11.65;7.72;;;;;;;;;;5032768;28;20033;-68
2021/06/10 11:40:45;;;;;;;10.20;6.63;;;;;;;;;;5032601;28;20397;-67
2021/06/10 11:43:58;;;;;;;10.52;7.25;;;;;;;;;;5032150;28;20049;-68
2021/06/10 11:47:02;;;;;;;10.63;7.78;;;;;;;;;;5032438;28;20503;-68
2021/06/10 11:50:26;;;;;;;14.15;8.23;;;;;;;;;;5032298;28;20060;-67
2021/06/10 11:53:31;;;;;;;9.18;6.97;;;;;;;;;;5031989;28;20037;-67
2021/06/10 11:56:35;;;;;;;14.68;8.27;;;;;;;;;;5032274;28;20041;-67
2021/06/10 11:59:40;;;;;;;9.82;7.93;;;;;;;;;;5031977;28;20038;-68
2021/06/10 12:02:44;;;;;;;11.50;7.68;;;;;;;;;;5030984;28;20045;-67
2021/06/10 12:05:49;;;;;;;16.85;8.32;;;;;;;;;;5032142;28;20033;-67
2021/06/10 12:08:53;;;;;;;16.10;8.50;;;;;;;;;;5032379;28;20045;-67
2021/06/10 12:11:57;;;;;;;15.10;8.90;;;;;;;;;;5031018;28;20065;-67
2021/06/10 12:15:02;;;;;;;16.17;9.25;;;;;;;;;;5031649;28;20041;-67
2021/06/10 12:18:08;;;;;;;16.13;8.13;;;;;;;;;;5030980;28;20405;-67
2021/06/10 12:21:27;;;;;;;12.25;7.28;;;;;;;;;;5030831;28;20038;-67
2021/06/10 12:24:41;;;;;;;12.85;7.57;;;;;;;;;;5031381;28;20060;-67
2021/06/10 12:27:46;;;;;;;8.07;7.05;;;;;;;;;;5031746;28;20041;-67
2021/06/10 12:30:58;;;;;;;10.90;8.00;;;;;;;;;;5031763;28;20033;-67
2021/06/10 12:34:04;;;;;;;10.40;8.55;;;;;;;;;;5031303;28;20504;-67
2021/06/10 12:37:10;;;;;;;10.48;7.43;;;;;;;;;;5031462;28;20045;-67
2021/06/10 12:40:13;;;;;;;9.75;8.35;;;;;;;;;;5031788;28;20389;-67
2021/06/10 12:43:23;;;;;;;10.57;8.00;;;;;;;;;;5031116;28;20049;-67
2021/06/10 12:46:28;;;;;;;11.63;7.75;;;;;;;;;;5031214;28;20393;-67
2021/06/10 12:49:37;;;;;;;9.88;8.07;;;;;;;;;;5031340;28;20037;-67
2021/06/10 12:52:41;;;;;;;10.10;8.02;;;;;;;;;;5030214;28;20037;-67
2021/06/10 12:55:46;;;;;;;17.38;8.23;;;;;;;;;;5031274;28;20067;-66
2021/06/10 12:58:50;;;;;;;7.35;6.65;;;;;;;;;;5030998;28;20037;-67
2021/06/10 13:02:08;;;;;;;9.90;5.63;;;;;;;;;;5031299;28;20494;-67
2021/06/10 13:05:14;;;;;;;11.88;6.50;;;;;;;;;;5031050;28;20049;-67
2021/06/10 13:08:29;;;;;;;17.45;9.30;;;;;;;;;;5030894;28;20033;-67
2021/06/10 13:11:34;;;;;;;24.73;9.20;;;;;;;;;;5030401;28;20045;-67
2021/06/10 13:14:38;;;;;;;17.75;8.68;;;;;;;;;;5029952;28;20401;-67
2021/06/10 13:17:49;;;;;;;16.63;8.73;;;;;;;;;;5030794;28;20506;-68
2021/06/10 13:20:56;;;;;;;12.77;8.85;;;;;;;;;;5030624;28;20034;-67
2021/06/10 13:24:01;;;;;;;12.63;8.10;;;;;;;;;;5030498;28;20207;-67
2021/06/10 13:27:14;;;;;;;18.08;8.25;;;;;;;;;;5030783;28;20043;-68
2021/06/10 13:30:20;;;;;;;13.15;8.20;;;;;;;;;;5035582;28;20049;-68
2021/06/10 13:33:25;;;;;;;10.65;7.72;;;;;;;;;;5037167;28;20500;-69
2021/06/10 13:36:31;;;;;;;25.13;7.97;;;;;;;;;;5037113;28;20045;-68
2021/06/10 13:39:35;;;;;;;20.35;7.00;;;;;;;;;;5036206;28;20038;-68
2021/06/10 13:42:40;;;;;;;25.42;6.07;;;;;;;;;;5036193;28;20033;-68
2021/06/10 13:45:44;;;;;;;14.27;5.20;;;;;;;;;;5037383;28;20049;-69
2021/06/10 13:48:49;;;;;;;7.80;3.95;;;;;;;;;;5037177;28;20034;-68
2021/06/10 13:51:53;;;;;;;7.65;4.68;;;;;;;;;;5036769;28;20029;-68
2021/06/10 13:54:57;;;;;;;8.57;5.75;;;;;;;;;;5036427;28;20042;-67
2021/06/10 13:58:02;;;;;;;12.02;6.28;;;;;;;;;;5036895;28;20382;-68
2021/06/10 14:01:06;;;;;;;17.38;6.22;;;;;;;;;;5036897;28;20044;-67
2021/06/10 14:04:11;;;;;;;36.88;9.35;;;;;;;;;;5036722;28;20042;-67
2021/06/10 14:07:15;;;;;;;30.23;9.07;;;;;;;;;;5036786;28;20040;-66
2021/06/10 14:10:19;;;;;;;28.13;10.40;;;;;;;;;;5037125;28;20049;-66
2021/06/10 14:13:24;;;;;;;22.00;11.25;;;;;;;;;;5036969;28;20041;-66
2021/06/10 14:16:28;;;;;;;15.95;10.40;;;;;;;;;;5037131;28;20096;-67
2021/06/10 14:19:33;;;;;;;16.83;10.32;;;;;;;;;;5037005;28;20040;-66
2021/06/10 14:22:37;;;;;;;23.67;12.25;;;;;;;;;;5036405;28;20056;-66
2021/06/10 14:25:41;;;;;;;19.50;11.90;;;;;;;;;;5036675;28;20044;-66
2021/06/10 14:28:46;;;;;;;27.17;13.50;;;;;;;;;;5036799;28;20237;-67
2021/06/10 14:35:00;;;;;;;15.45;8.60;;;;;;;;;;5035140;28;20072;-69
2021/06/10 14:38:08;;;;;;;10.85;7.93;;;;;;;;;;5036615;28;20400;-67
2021/06/10 14:41:13;;;;;;;13.63;7.55;;;;;;;;;;5034359;28;20504;-68
2021/06/10 14:44:17;;;;;;;11.90;7.45;;;;;;;;;;5033225;28;20438;-68
2021/06/10 14:47:21;;;;;;;14.77;8.07;;;;;;;;;;5032580;28;20056;-66
2021/06/10 14:50:26;;;;;;;12.40;7.97;;;;;;;;;;5033647;28;20539;-66
2021/06/10 14:53:30;;;;;;;10.73;7.47;;;;;;;;;;5033073;28;20049;-67
2021/06/10 14:56:35;;;;;;;10.80;7.95;;;;;;;;;;5032989;28;20041;-68
2021/06/10 14:59:39;;;;;;;11.88;7.13;;;;;;;;;;5033294;28;20105;-66
2021/06/10 15:02:43;;;;;;;11.18;7.88;;;;;;;;;;5033250;28;20052;-67
2021/06/10 15:05:47;;;;;;;12.00;7.00;;;;;;;;;;5033200;28;20058;-70
2021/06/10 15:08:52;;;;;;;7.65;6.78;;;;;;;;;;5033133;28;20045;-67
2021/06/10 15:11:56;;;;;;;15.63;7.45;;;;;;;;;;5031932;28;20045;-67
2021/06/10 15:15:00;;;;;;;10.98;7.30;;;;;;;;;;5032696;28;20041;-66
2021/06/10 15:18:05;;;;;;;10.38;7.00;;;;;;;;;;5032963;28;20038;-66
2021/06/10 15:21:09;;;;;;;10.00;7.20;;;;;;;;;;5020294;28;20046;-66
2021/06/10 15:24:13;;;;;;;8.55;6.68;;;;;;;;;;5032421;28;20041;-70
2021/06/10 15:27:18;;;;;;;10.23;6.70;;;;;;;;;;5020751;28;20033;-68
2021/06/10 15:30:24;;;;;;;9.68;8.07;;;;;;;;;;5032183;28;20042;-68
2021/06/10 15:33:28;;;;;;;10.80;8.35;;;;;;;;;;5031468;28;20049;-67
2021/06/10 15:36:33;;;;;;;9.07;7.80;;;;;;;;;;5031897;28;20037;-67
2021/06/10 15:39:37;;;;;;;15.70;7.88;;;;;;;;;;5031723;28;20046;-67
2021/06/10 15:42:42;;;;;;;11.57;8.63;;;;;;;;;;5032284;28;20042;-67
2021/06/10 15:45:46;;;;;;;13.05;8.73;;;;;;;;;;5032212;28;20048;-68
2021/06/10 15:48:51;;;;;;;12.85;9.35;;;;;;;;;;5032082;28;20410;-68
2021/06/10 15:51:55;;;;;;;12.88;9.98;;;;;;;;;;5031820;28;20052;-68
2021/06/10 15:54:59;;;;;;;12.70;9.73;;;;;;;;;;5032082;28;20385;-68
2021/06/10 15:58:23;;;;;;;14.55;10.25;;;;;;;;;;5031957;28;20039;-68
2021/06/10 16:01:27;;;;;;;13.00;10.63;;;;;;;;;;5032169;28;20044;-67
2021/06/10 16:04:32;;;;;;;13.85;10.75;;;;;;;;;;5031487;28;20056;-67
2021/06/10 16:07:36;;;;;;;18.15;10.35;;;;;;;;;;5031654;28;20056;-67
2021/06/10 16:10:40;;;;;;;14.55;11.45;;;;;;;;;;5031377;28;20052;-67
2021/06/10 16:13:45;;;;;;;20.25;11.80;;;;;;;;;;5031657;28;20426;-67
2021/06/10 16:16:49;;;;;;;14.02;11.35;;;;;;;;;;5032138;28;20060;-67
2021/06/10 16:19:54;;;;;;;21.35;11.82;;;;;;;;;;5031022;28;20040;-67
2021/06/10 16:22:58;;;;;;;15.02;12.88;;;;;;;;;;5031768;28;20044;-67
2021/06/10 16:26:03;;;;;;;16.50;12.25;;;;;;;;;;5031827;28;20049;-67
2021/06/10 16:29:08;;;;;;;19.95;13.20;;;;;;;;;;5031482;28;20052;-67
2021/06/10 16:32:12;;;;;;;19.13;15.23;;;;;;;;;;5031435;28;20197;-67
2021/06/10 16:35:21;;;;;;;28.83;16.85;;;;;;;;;;5032005;28;20056;-67
2021/06/10 16:38:26;;;;;;;24.50;17.75;;;;;;;;;;5031057;28;20037;-68
2021/06/10 16:41:30;;;;;;;22.52;16.88;;;;;;;;;;5031230;28;20559;-68
2021/06/10 16:44:35;;;;;;;26.58;16.05;;;;;;;;;;5029822;28;20378;-68
2021/06/10 16:47:40;;;;;;;21.85;14.40;;;;;;;;;;5031333;28;20044;-67
2021/06/10 16:50:44;;;;;;;17.05;13.57;;;;;;;;;;5030808;28;20056;-67
2021/06/10 16:53:48;;;;;;;22.42;15.40;;;;;;;;;;5030845;28;20045;-66
2021/06/10 16:56:53;;;;;;;18.38;15.00;;;;;;;;;;5031024;28;20072;-66
2021/06/10 17:00:02;;;;;;;20.80;15.18;;;;;;;;;;5030687;28;20044;-65
2021/06/10 17:06:11;;;;;;;19.67;14.98;;;;;;;;;;5030889;28;20060;-67
2021/06/10 17:09:16;;;;;;;19.13;14.50;;;;;;;;;;5030649;28;20040;-65
2021/06/10 17:12:21;;;;;;;17.38;14.27;;;;;;;;;;5030594;28;20040;-65
2021/06/10 17:15:25;;;;;;;18.55;15.20;;;;;;;;;;5030387;28;20515;-67
2021/06/10 17:18:29;;;;;;;18.58;15.75;;;;;;;;;;5030284;28;20048;-68
2021/06/10 17:21:35;;;;;;;17.45;15.35;;;;;;;;;;5030075;28;20044;-68
2021/06/10 17:24:39;;;;;;;15.35;12.65;;;;;;;;;;5030254;28;20052;-68
2021/06/10 17:27:44;;;;;;;16.75;12.38;;;;;;;;;;5030229;28;20040;-68
2021/06/10 17:31:06;;;;;;;20.20;12.30;;;;;;;;;;5030277;28;20048;-67
2021/06/10 17:34:11;;;;;;;14.00;12.45;;;;;;;;;;5029470;28;20060;-67
2021/06/10 17:37:18;;;;;;;14.68;11.82;;;;;;;;;;5030174;28;20048;-67
2021/06/10 17:40:23;;;;;;;15.82;11.88;;;;;;;;;;5029347;28;20073;-67
2021/06/10 17:43:27;;;;;;;12.45;10.98;;;;;;;;;;5029733;28;20052;-67
2021/06/10 17:46:31;;;;;;;16.00;10.82;;;;;;;;;;5029495;28;20045;-67
2021/06/10 17:49:36;;;;;;;13.95;10.93;;;;;;;;;;5029662;28;20041;-67
2021/06/10 17:52:40;;;;;;;14.35;11.27;;;;;;;;;;5029997;28;20377;-67
2021/06/10 17:55:46;;;;;;;15.77;10.40;;;;;;;;;;5030132;28;20053;-67
2021/06/10 17:58:51;;;;;;;15.43;10.55;;;;;;;;;;5029160;28;20056;-67
2021/06/10 18:01:56;;;;;;;12.10;10.35;;;;;;;;;;5029936;28;20052;-67
2021/06/10 18:05:01;;;;;;;13.80;11.43;;;;;;;;;;5029741;28;20056;-67
2021/06/10 18:08:05;;;;;;;11.95;10.75;;;;;;;;;;5030266;28;20500;-67
2021/06/10 18:11:09;;;;;;;14.25;11.18;;;;;;;;;;5030097;28;20041;-67
2021/06/10 18:14:14;;;;;;;14.52;12.07;;;;;;;;;;5029962;28;20473;-70
2021/06/10 18:17:19;;;;;;;16.92;13.07;;;;;;;;;;5032628;28;20052;-70